Terminal Aerodrome Forecast
Issued by NWS

Home | Current Version | Previous Version | Text Only | Print | Product List | Glossary On
Versions: 1 2 3 4 5 6 7 8 9 10 11 12 13 14 15 16 17 18 19
216
FTUS43 KILX 290541
TAFCMI
TAF
KCMI 290541Z 2906/3006 19014G20KT P6SM VCSH BKN250 WS020/22050KT
     FM291000 20011G17KT P6SM VCSH SCT080 BKN150
     FM291400 21015G22KT P6SM SCT050 BKN120
     FM292100 21013KT P6SM VCTS SCT050CB BKN090
     FM300300 20009KT P6SM BKN200=

USA.gov is the U.S. government's official web portal to all federal, state and local government web resources and services.